Time;durP1;ratioP1;P1;durP2;ratioP2;P2;SDS_P1;SDS_P2;PMS_P1;PMS_P2;Temp;Humidity;BMP_temperature;BMP_pressure;BME280_temperature;BME280_humidity;BME280_pressure;Samples;Min_cycle;Max_cycle;Signal;HPM_P1;HPM_P2
2022/08/22 00:00:12;;;;;;;;;;;;;;;15.59;98.91;101522.94;1016474;29;20291;-77
2022/08/22 00:00:53;;;;;;;;;;;;;;;15.42;99.19;101517.44;1012449;29;19931;-77
2022/08/22 00:01:27;;;;;;;;;;;;;;;15.52;99.23;101518.72;1015820;29;19923;-76
2022/08/22 00:02:02;;;;;;;;;;;;;;;15.59;99.40;101522.94;1015451;29;19949;-77
2022/08/22 00:02:36;;;;;;;;;;;;;;;15.63;99.40;101521.47;1016458;29;19945;-77
2022/08/22 00:03:13;;;;;;;;;;;;;;;15.61;99.64;101525.41;1016275;29;19927;-77
2022/08/22 00:04:04;;;;;;;;;;;;;;;15.64;99.40;101522.28;1016492;29;19923;-77
2022/08/22 00:04:46;;;;;;;;;;;;;;;15.68;98.91;101515.38;1014944;29;19989;-77
2022/08/22 00:05:22;;;;;;;;;;;;;;;15.70;98.88;101514.09;1010885;29;19936;-77
2022/08/22 00:06:11;;;;;;;;;;;;;;;15.67;98.95;101521.81;1012473;29;19923;-77
2022/08/22 00:06:54;;;;;;;;;;;;;;;15.71;99.65;101514.91;1015484;29;20715;-77
2022/08/22 00:07:32;;;;;;;;;;;;;;;15.74;99.58;101519.81;1020509;29;19930;-77
2022/08/22 00:08:21;;;;;;;;;;;;;;;15.73;99.74;101519.00;1016380;29;19923;-77
2022/08/22 00:08:58;;;;;;;;;;;;;;;15.72;99.74;101525.44;1016628;29;20280;-76
2022/08/22 00:09:33;;;;;;;;;;;;;;;15.72;99.69;101511.19;1008410;29;20046;-77
2022/08/22 00:10:12;;;;;;;;;;;;;;;15.64;99.13;101520.41;1011021;29;19924;-77
2022/08/22 00:11:11;;;;;;;;;;;;;;;15.55;98.63;101520.94;1003477;29;20378;-77
2022/08/22 00:11:49;;;;;;;;;;;;;;;15.56;99.27;101520.69;1009285;29;19924;-76
2022/08/22 00:12:22;;;;;;;;;;;;;;;15.48;99.34;101520.25;1013851;29;19930;-77
2022/08/22 00:13:00;;;;;;;;;;;;;;;15.39;99.74;101511.72;1016849;29;19927;-76
2022/08/22 00:13:35;;;;;;;;;;;;;;;15.50;100.00;101513.59;1016520;29;19923;-77
2022/08/22 00:14:10;;;;;;;;;;;;;;;15.56;100.00;101515.34;1016315;29;19931;-77
2022/08/22 00:14:44;;;;;;;;;;;;;;;15.61;100.00;101510.13;1017939;29;19923;-77
2022/08/22 00:15:30;;;;;;;;;;;;;;;15.62;100.00;101517.16;1016284;29;20388;-77
2022/08/22 00:16:20;;;;;;;;;;;;;;;15.53;99.40;101515.81;1020271;29;19923;-77
2022/08/22 00:16:55;;;;;;;;;;;;;;;15.55;98.87;101521.75;1020441;29;19990;-77
2022/08/22 00:17:41;;;;;;;;;;;;;;;15.61;99.06;101515.50;1016551;29;19934;-77
2022/08/22 00:18:26;;;;;;;;;;;;;;;15.67;99.63;101519.94;1015980;29;19923;-77
2022/08/22 00:19:16;;;;;;;;;;;;;;;15.66;100.00;101518.31;1016119;29;19981;-76
2022/08/22 00:19:47;;;;;;;;;;;;;;;15.73;99.71;101519.00;1016621;29;20284;-77
2022/08/22 00:20:23;;;;;;;;;;;;;;;15.67;99.32;101519.94;1018986;29;19923;-76
2022/08/22 00:21:08;;;;;;;;;;;;;;;15.64;99.24;101519.59;1020553;29;20399;-77
2022/08/22 00:21:46;;;;;;;;;;;;;;;15.65;99.10;101518.53;1020253;29;19959;-77
2022/08/22 00:22:36;;;;;;;;;;;;;;;15.69;99.50;101517.84;1021564;29;19923;-77
2022/08/22 00:23:10;;;;;;;;;;;;;;;15.73;99.77;101513.63;1020090;29;20305;-77
2022/08/22 00:24:00;;;;;;;;;;;;;;;15.73;99.88;101513.63;1016544;29;19923;-77
2022/08/22 00:24:32;;;;;;;;;;;;;;;15.74;99.23;101512.56;1018472;29;19922;-77
2022/08/22 00:25:12;;;;;;;;;;;;;;;15.74;99.16;101512.56;1015924;29;20086;-77
2022/08/22 00:25:56;;;;;;;;;;;;;;;15.66;99.50;101522.88;1018753;29;19932;-77
2022/08/22 00:26:32;;;;;;;;;;;;;;;15.52;99.41;101516.84;1018200;29;20307;-76
2022/08/22 00:27:06;;;;;;;;;;;;;;;15.68;99.87;101520.75;1021452;29;19923;-77
2022/08/22 00:27:47;;;;;;;;;;;;;;;15.71;99.45;101515.72;1016198;29;20022;-77
2022/08/22 00:28:20;;;;;;;;;;;;;;;15.70;99.94;101514.09;1012542;29;20311;-77
2022/08/22 00:29:03;;;;;;;;;;;;;;;15.68;99.93;101526.94;1014698;29;19923;-77
2022/08/22 00:29:41;;;;;;;;;;;;;;;15.68;99.79;101520.75;1016234;29;19931;-77
2022/08/22 00:30:15;;;;;;;;;;;;;;;15.68;99.63;101521.56;1012559;29;19923;-77
2022/08/22 00:31:05;;;;;;;;;;;;;;;15.60;99.40;101519.22;1011975;29;19945;-77
2022/08/22 00:31:48;;;;;;;;;;;;;;;15.67;99.66;101524.50;1015081;29;19923;-76
2022/08/22 00:32:31;;;;;;;;;;;;;;;15.70;99.18;101513.28;1013087;29;19934;-77
2022/08/22 00:33:05;;;;;;;;;;;;;;;15.76;99.36;101513.16;1018075;29;19930;-77
2022/08/22 00:33:41;;;;;;;;;;;;;;;15.80;99.18;101518.06;1016247;29;19923;-77
2022/08/22 00:34:15;;;;;;;;;;;;;;;15.79;99.04;101516.44;1016308;29;19927;-77
2022/08/22 00:34:52;;;;;;;;;;;;;;;15.81;99.04;101514.31;1016037;29;19952;-79
2022/08/22 00:35:37;;;;;;;;;;;;;;;15.80;99.06;101520.75;1017304;29;19930;-77
2022/08/22 00:36:21;;;;;;;;;;;;;;;15.79;98.89;101509.19;1014758;29;19924;-77
2022/08/22 00:37:01;;;;;;;;;;;;;;;15.77;99.49;101524.72;1016027;29;20036;-77
2022/08/22 00:37:38;;;;;;;;;;;;;;;15.64;99.06;101523.09;1020362;29;19946;-77
2022/08/22 00:38:09;;;;;;;;;;;;;;;15.51;99.70;101515.22;1020363;29;19927;-77
2022/08/22 00:38:42;;;;;;;;;;;;;;;15.48;100.00;101515.69;1020568;29;20017;-77
2022/08/22 00:39:18;;;;;;;;;;;;;;;15.53;100.00;101520.34;1015606;29;20339;-76
2022/08/22 00:40:08;;;;;;;;;;;;;;;15.47;100.00;101516.75;1012246;29;19930;-77
2022/08/22 00:40:43;;;;;;;;;;;;;;;15.45;100.00;101516.16;1012277;29;20013;-77
2022/08/22 00:41:23;;;;;;;;;;;;;;;15.32;100.00;101516.34;1016148;29;20360;-77
2022/08/22 00:41:57;;;;;;;;;;;;;;;15.35;100.00;101515.91;1016100;29;19923;-77
2022/08/22 00:42:47;;;;;;;;;;;;;;;15.34;100.00;101515.09;1016502;29;19959;-77
2022/08/22 00:43:26;;;;;;;;;;;;;;;15.34;100.00;101514.25;1015843;29;19934;-77
2022/08/22 00:44:06;;;;;;;;;;;;;;;15.32;100.00;101516.34;1018631;29;19929;-77
2022/08/22 00:44:50;;;;;;;;;;;;;;;15.32;100.00;101511.78;1018489;29;19930;-77
2022/08/22 00:45:21;;;;;;;;;;;;;;;15.27;100.00;101513.53;1020078;29;20129;-77
2022/08/22 00:45:58;;;;;;;;;;;;;;;15.23;100.00;101523.94;1020621;29;19923;-77
2022/08/22 00:46:41;;;;;;;;;;;;;;;15.23;100.00;101517.75;1020271;29;19923;-77
2022/08/22 00:47:16;;;;;;;;;;;;;;;15.28;100.00;101520.56;1019892;29;19926;-77
2022/08/22 00:48:02;;;;;;;;;;;;;;;15.25;100.00;101527.19;1019814;29;19934;-77
2022/08/22 00:48:37;;;;;;;;;;;;;;;15.29;100.00;101514.13;1016470;29;19945;-77
2022/08/22 00:49:10;;;;;;;;;;;;;;;15.33;100.00;101517.97;1016100;29;19934;-77
2022/08/22 00:49:52;;;;;;;;;;;;;;;15.37;100.00;101511.13;1012430;29;20388;-77
2022/08/22 00:50:43;;;;;;;;;;;;;;;15.40;100.00;101524.09;1012250;29;20352;-77
2022/08/22 00:51:21;;;;;;;;;;;;;;;15.42;100.00;101513.94;1016163;29;20005;-77
2022/08/22 00:52:11;;;;;;;;;;;;;;;15.48;100.00;101515.69;1016287;29;19923;-77
2022/08/22 00:52:46;;;;;;;;;;;;;;;15.52;100.00;101511.47;1016345;29;20430;-77
2022/08/22 00:53:20;;;;;;;;;;;;;;;15.51;100.00;101517.09;1016408;29;19923;-77
2022/08/22 00:53:55;;;;;;;;;;;;;;;15.51;100.00;101515.22;1016147;29;19923;-77
2022/08/22 00:54:33;;;;;;;;;;;;;;;15.56;100.00;101517.19;1016242;29;19923;-77
2022/08/22 00:55:13;;;;;;;;;;;;;;;15.53;100.00;101523.84;1016592;29;19934;-77
2022/08/22 00:55:58;;;;;;;;;;;;;;;15.59;100.00;101517.56;1016069;29;19923;-77
2022/08/22 00:56:32;;;;;;;;;;;;;;;15.53;100.00;101523.84;1018307;29;20080;-77
2022/08/22 00:57:15;;;;;;;;;;;;;;;15.58;100.00;101518.63;1015878;29;19923;-77
2022/08/22 00:58:05;;;;;;;;;;;;;;;15.61;100.00;101520.88;1015694;29;19946;-76
2022/08/22 00:58:43;;;;;;;;;;;;;;;15.65;100.00;101521.22;1020157;29;19922;-77
2022/08/22 00:59:30;;;;;;;;;;;;;;;15.66;100.00;101518.31;1019801;29;20063;-77
2022/08/22 01:00:07;;;;;;;;;;;;;;;15.68;100.00;101526.13;1019604;29;19922;-77
2022/08/22 01:00:52;;;;;;;;;;;;;;;15.68;100.00;101526.13;1020087;29;19922;-77
2022/08/22 01:01:32;;;;;;;;;;;;;;;15.59;100.00;101522.13;1015828;29;19923;-76
2022/08/22 01:02:09;;;;;;;;;;;;;;;15.55;100.00;101524.44;1016369;29;19923;-77
2022/08/22 01:03:19;;;;;;;;;;;;;;;15.59;100.00;101528.31;1012993;29;19935;-77
2022/08/22 01:03:59;;;;;;;;;;;;;;;15.55;100.00;101527.13;1008202;29;19943;-77
2022/08/22 01:04:33;;;;;;;;;;;;;;;15.60;100.00;101523.78;1010441;29;19923;-77
2022/08/22 01:05:13;;;;;;;;;;;;;;;15.59;100.00;101528.31;1011924;29;19923;-77
2022/08/22 01:05:49;;;;;;;;;;;;;;;15.50;100.00;101524.31;1011953;29;19923;-77
2022/08/22 01:06:20;;;;;;;;;;;;;;;15.59;100.00;101525.63;1013090;29;19930;-77
2022/08/22 01:06:54;;;;;;;;;;;;;;;15.61;100.00;101528.94;1012077;29;19923;-77
2022/08/22 01:07:35;;;;;;;;;;;;;;;15.57;100.00;101525.03;1012303;29;19924;-77
2022/08/22 01:08:08;;;;;;;;;;;;;;;15.56;100.00;101526.06;1011698;29;19931;-76
2022/08/22 01:08:58;;;;;;;;;;;;;;;15.44;100.00;101525.25;1005533;29;19938;-77
2022/08/22 01:09:30;;;;;;;;;;;;;;;15.40;100.00;101524.91;1007325;29;19930;-77
2022/08/22 01:10:09;;;;;;;;;;;;;;;15.40;100.00;101526.78;1016654;29;20064;-77
2022/08/22 01:10:46;;;;;;;;;;;;;;;15.47;100.00;101519.41;1016778;29;19931;-77
2022/08/22 01:11:33;;;;;;;;;;;;;;;15.51;100.00;101520.59;1016376;29;19931;-77
2022/08/22 01:12:14;;;;;;;;;;;;;;;15.50;100.00;101524.31;1016233;29;20385;-77
2022/08/22 01:13:15;;;;;;;;;;;;;;;15.48;100.00;101522.91;1016343;29;19966;-77
2022/08/22 01:13:47;;;;;;;;;;;;;;;15.51;100.00;101533.19;1000404;29;20492;-77
2022/08/22 01:14:28;;;;;;;;;;;;;;;15.51;100.00;101528.63;1001038;29;19924;-77
2022/08/22 01:15:09;;;;;;;;;;;;;;;15.52;100.00;101521.41;1003461;29;19924;-77
2022/08/22 01:15:41;;;;;;;;;;;;;;;15.56;100.00;101522.56;1006684;29;20419;-77
2022/08/22 01:16:12;;;;;;;;;;;;;;;15.57;100.00;101527.72;1012310;29;19924;-77
2022/08/22 01:16:54;;;;;;;;;;;;;;;15.51;100.00;101523.28;1014016;29;19924;-77
2022/08/22 01:17:31;;;;;;;;;;;;;;;15.54;100.00;101524.69;1012043;29;19931;-79
2022/08/22 01:18:11;;;;;;;;;;;;;;;15.51;100.00;101520.59;1018886;29;19958;-77
2022/08/22 01:18:47;;;;;;;;;;;;;;;15.53;100.00;101517.66;1020164;29;19974;-77
2022/08/22 01:19:19;;;;;;;;;;;;;;;15.53;100.00;101529.22;1018509;29;20334;-77
2022/08/22 01:20:12;;;;;;;;;;;;;;;15.52;100.00;101524.91;1015773;29;19923;-77
2022/08/22 01:21:03;;;;;;;;;;;;;;;15.51;100.00;101531.31;1015898;29;19923;-77
2022/08/22 01:21:37;;;;;;;;;;;;;;;15.51;100.00;101525.97;1016286;29;19923;-77
2022/08/22 01:22:21;;;;;;;;;;;;;;;15.53;100.00;101529.22;1014233;29;19934;-77
2022/08/22 01:23:01;;;;;;;;;;;;;;;15.51;100.00;101523.28;1018664;29;20407;-77
2022/08/22 01:23:41;;;;;;;;;;;;;;;15.46;100.00;101523.16;1020781;29;19929;-77
2022/08/22 01:24:20;;;;;;;;;;;;;;;15.38;100.00;101531.56;1020297;29;20415;-77
2022/08/22 01:25:18;;;;;;;;;;;;;;;15.36;100.00;101528.28;1019909;29;19954;-77
2022/08/22 01:25:56;;;;;;;;;;;;;;;15.34;100.00;101525.84;1015812;29;20384;-77
2022/08/22 01:26:37;;;;;;;;;;;;;;;15.36;100.00;101522.91;1016075;29;20486;-77
2022/08/22 01:27:29;;;;;;;;;;;;;;;15.14;100.00;101523.44;1017683;29;20272;-77
2022/08/22 01:28:17;;;;;;;;;;;;;;;15.20;100.00;101524.41;1020034;29;19923;-77
2022/08/22 01:28:54;;;;;;;;;;;;;;;15.14;100.00;101530.69;1015939;29;19930;-77
2022/08/22 01:29:38;;;;;;;;;;;;;;;15.14;100.00;101531.50;1016161;29;20367;-77
2022/08/22 01:30:17;;;;;;;;;;;;;;;15.13;100.00;101521.81;1019305;29;19926;-77
2022/08/22 01:30:48;;;;;;;;;;;;;;;15.10;100.00;101519.59;1015943;29;19923;-77
2022/08/22 01:31:20;;;;;;;;;;;;;;;15.08;100.00;101532.44;1018572;29;19929;-77
2022/08/22 01:31:54;;;;;;;;;;;;;;;15.07;100.00;101536.16;1020269;29;19930;-77
2022/08/22 01:32:41;;;;;;;;;;;;;;;15.08;100.00;101532.44;1019920;29;19922;-77
2022/08/22 01:33:32;;;;;;;;;;;;;;;15.09;100.00;101539.44;1017517;29;20372;-77
2022/08/22 01:34:09;;;;;;;;;;;;;;;14.92;100.00;101527.69;1016629;29;19930;-77
2022/08/22 01:34:52;;;;;;;;;;;;;;;14.92;100.00;101530.38;1016198;29;19930;-76
2022/08/22 01:35:27;;;;;;;;;;;;;;;14.92;100.00;101537.59;1016016;29;19934;-77
2022/08/22 01:36:17;;;;;;;;;;;;;;;14.94;100.00;101525.59;1012199;29;19986;-77
2022/08/22 01:37:04;;;;;;;;;;;;;;;14.91;100.00;101530.59;1017707;29;19930;-77
2022/08/22 01:37:55;;;;;;;;;;;;;;;14.86;100.00;101527.78;1019793;29;19923;-77
2022/08/22 01:38:45;;;;;;;;;;;;;;;14.76;100.00;101529.13;1023677;29;19930;-77
2022/08/22 01:39:35;;;;;;;;;;;;;;;14.77;100.00;101532.63;1019838;29;19931;-77
2022/08/22 01:40:22;;;;;;;;;;;;;;;14.79;100.00;101535.91;1016388;29;20513;-77
2022/08/22 01:41:13;;;;;;;;;;;;;;;14.79;100.00;101531.38;1012256;29;19923;-76
2022/08/22 01:41:49;;;;;;;;;;;;;;;14.78;100.00;101526.22;1016341;29;19930;-77
2022/08/22 01:42:33;;;;;;;;;;;;;;;14.78;100.00;101526.22;1019420;29;19922;-77
2022/08/22 01:43:21;;;;;;;;;;;;;;;14.76;100.00;101528.31;1018508;29;19922;-77
2022/08/22 01:44:36;;;;;;;;;;;;;;;14.72;100.00;101527.13;1021318;28;20422;-77
2022/08/22 01:45:16;;;;;;;;;;;;;;;14.72;100.00;101532.50;1015496;29;19922;-77
2022/08/22 01:46:09;;;;;;;;;;;;;;;14.69;100.00;101533.78;1015975;29;19923;-77
2022/08/22 01:46:52;;;;;;;;;;;;;;;14.68;100.00;101525.97;1013312;29;19946;-77
2022/08/22 01:47:38;;;;;;;;;;;;;;;14.73;100.00;101528.78;1011887;29;19923;-77
2022/08/22 01:48:11;;;;;;;;;;;;;;;14.66;100.00;101533.41;1014061;29;20394;-77
2022/08/22 01:48:45;;;;;;;;;;;;;;;14.66;100.00;101533.41;1008083;29;19931;-76
2022/08/22 01:49:23;;;;;;;;;;;;;;;14.67;100.00;101535.06;1014783;29;19927;-77
2022/08/22 01:49:56;;;;;;;;;;;;;;;14.70;100.00;101529.22;1015991;29;19927;-77
2022/08/22 01:50:48;;;;;;;;;;;;;;;14.70;100.00;101529.22;1017288;29;20011;-77
2022/08/22 01:51:22;;;;;;;;;;;;;;;14.62;100.00;101526.88;1019348;29;19922;-77
2022/08/22 01:52:12;;;;;;;;;;;;;;;14.64;100.00;101524.78;1020073;29;20413;-77
2022/08/22 01:52:45;;;;;;;;;;;;;;;14.63;100.00;101532.00;1019617;29;19923;-77
2022/08/22 01:53:36;;;;;;;;;;;;;;;14.64;100.00;101527.47;1019814;29;19929;-77
2022/08/22 01:54:10;;;;;;;;;;;;;;;14.68;100.00;101531.31;1013437;29;20317;-77
2022/08/22 01:55:00;;;;;;;;;;;;;;;14.67;100.00;101529.69;1017751;29;19923;-76
2022/08/22 01:55:42;;;;;;;;;;;;;;;14.68;100.00;101525.97;1019601;29;19930;-77
2022/08/22 01:56:13;;;;;;;;;;;;;;;14.59;100.00;101527.31;1016091;29;19923;-76
2022/08/22 01:56:45;;;;;;;;;;;;;;;14.56;100.00;101533.13;1019633;29;20334;-77
2022/08/22 01:57:17;;;;;;;;;;;;;;;14.59;100.00;101530.00;1019794;29;19937;-77
2022/08/22 01:57:56;;;;;;;;;;;;;;;14.60;100.00;101523.59;1015630;29;19970;-76
2022/08/22 01:58:33;;;;;;;;;;;;;;;14.64;100.00;101524.78;1013938;29;20022;-77
2022/08/22 01:59:05;;;;;;;;;;;;;;;14.70;100.00;101529.22;1012030;29;19971;-76
2022/08/22 01:59:54;;;;;;;;;;;;;;;14.74;100.00;101533.09;1015121;29;19966;-77
2022/08/22 02:00:26;;;;;;;;;;;;;;;14.67;100.00;101532.38;1018135;29;19923;-77
2022/08/22 02:01:07;;;;;;;;;;;;;;;14.52;100.00;101522.06;1019761;29;19922;-77
2022/08/22 02:01:57;;;;;;;;;;;;;;;14.57;100.00;101529.41;1015819;29;19923;-77
2022/08/22 02:02:31;;;;;;;;;;;;;;;14.55;100.00;101523.47;1011989;29;19923;-77
2022/08/22 02:03:06;;;;;;;;;;;;;;;14.50;100.00;101524.13;1012359;29;20048;-77
2022/08/22 02:03:42;;;;;;;;;;;;;;;14.48;100.00;101524.34;1011429;29;20371;-77
2022/08/22 02:04:32;;;;;;;;;;;;;;;14.41;100.00;101520.91;1010513;29;20495;-77
2022/08/22 02:05:16;;;;;;;;;;;;;;;14.41;100.00;101514.72;1016016;29;19923;-77
2022/08/22 02:05:49;;;;;;;;;;;;;;;14.57;100.00;101522.19;1019699;29;19930;-77
2022/08/22 02:06:31;;;;;;;;;;;;;;;14.52;100.00;101522.06;1019704;29;20397;-77
2022/08/22 02:07:11;;;;;;;;;;;;;;;14.47;100.00;101514.66;1015579;29;19923;-77
2022/08/22 02:07:58;;;;;;;;;;;;;;;14.51;100.00;101515.84;1015798;29;19923;-77
2022/08/22 02:08:39;;;;;;;;;;;;;;;14.45;100.00;101521.28;1019721;29;19922;-76
2022/08/22 02:09:29;;;;;;;;;;;;;;;14.38;100.00;101525.91;1015810;29;19930;-77
2022/08/22 02:10:05;;;;;;;;;;;;;;;14.47;100.00;101522.69;1020078;29;20385;-77
2022/08/22 02:10:47;;;;;;;;;;;;;;;14.47;100.00;101514.66;1015753;29;19987;-77
2022/08/22 02:11:36;;;;;;;;;;;;;;;14.41;100.00;101525.44;1019954;29;19978;-77
2022/08/22 02:12:14;;;;;;;;;;;;;;;14.41;100.00;101520.06;1013646;29;19923;-77
2022/08/22 02:12:58;;;;;;;;;;;;;;;14.41;100.00;101518.22;1016443;29;20438;-77
2022/08/22 02:13:36;;;;;;;;;;;;;;;14.46;100.00;101513.03;1015915;29;20319;-77
2022/08/22 02:14:16;;;;;;;;;;;;;;;14.51;100.00;101521.19;1018174;29;19923;-77
2022/08/22 02:14:51;;;;;;;;;;;;;;;14.57;100.00;101516.00;1014703;29;20242;-77
2022/08/22 02:15:34;;;;;;;;;;;;;;;14.62;100.00;101516.16;1012108;29;19923;-76
2022/08/22 02:16:35;;;;;;;;;;;;;;;14.64;100.00;101514.06;1011697;29;19930;-77
2022/08/22 02:17:23;;;;;;;;;;;;;;;14.63;100.00;101517.78;1002328;29;19928;-77
2022/08/22 02:18:01;;;;;;;;;;;;;;;14.68;100.00;101520.59;1017209;29;19931;-77
2022/08/22 02:18:41;;;;;;;;;;;;;;;14.70;100.00;101518.50;1019505;29;20512;-76
2022/08/22 02:19:12;;;;;;;;;;;;;;;14.63;100.00;101515.91;1015742;29;19934;-77
2022/08/22 02:19:47;;;;;;;;;;;;;;;14.72;100.00;101525.28;1018269;29;20415;-77
2022/08/22 02:20:21;;;;;;;;;;;;;;;14.74;100.00;101519.69;1016156;29;19930;-76
2022/08/22 02:20:55;;;;;;;;;;;;;;;14.68;100.00;101523.28;1016800;29;19923;-76
2022/08/22 02:21:31;;;;;;;;;;;;;;;14.57;100.00;101518.69;1015657;29;19923;-77
2022/08/22 02:22:21;;;;;;;;;;;;;;;14.53;100.00;101512.97;1015691;29;19923;-76
2022/08/22 02:22:55;;;;;;;;;;;;;;;14.54;100.00;101519.97;1015650;29;19926;-77
2022/08/22 02:23:43;;;;;;;;;;;;;;;14.53;100.00;101518.31;1017621;29;19930;-76
2022/08/22 02:24:23;;;;;;;;;;;;;;;14.46;100.00;101518.38;1015815;29;19934;-77
2022/08/22 02:24:59;;;;;;;;;;;;;;;14.48;100.00;101516.28;1015756;29;19922;-77
2022/08/22 02:25:45;;;;;;;;;;;;;;;14.51;100.00;101515.84;1017720;29;19927;-77
2022/08/22 02:26:25;;;;;;;;;;;;;;;14.48;100.00;101510.94;1017742;29;19923;-77
2022/08/22 02:27:01;;;;;;;;;;;;;;;14.44;100.00;101523.16;1012167;29;19923;-77
2022/08/22 02:27:38;;;;;;;;;;;;;;;14.42;100.00;101519.03;1012162;29;19923;-77
2022/08/22 02:28:12;;;;;;;;;;;;;;;14.42;100.00;101516.34;1012277;29;19950;-77
2022/08/22 02:28:49;;;;;;;;;;;;;;;14.36;100.00;101512.72;1011736;29;19927;-76
2022/08/22 02:29:30;;;;;;;;;;;;;;;14.36;100.00;101512.72;1015989;29;19930;-77
2022/08/22 02:30:02;;;;;;;;;;;;;;;14.34;100.00;101514.81;1014707;29;19922;-77
2022/08/22 02:30:45;;;;;;;;;;;;;;;14.37;100.00;101513.53;1018434;29;20430;-77
2022/08/22 02:31:19;;;;;;;;;;;;;;;14.38;100.00;101517.84;1019858;29;19930;-77
2022/08/22 02:31:55;;;;;;;;;;;;;;;14.40;100.00;101513.91;1021869;29;19922;-72
2022/08/22 02:32:29;;;;;;;;;;;;;;;14.37;100.00;101518.91;1016559;29;19923;-72
2022/08/22 02:33:04;;;;;;;;;;;;;;;14.35;100.00;101511.09;1013863;29;19923;-72
2022/08/22 02:33:45;;;;;;;;;;;;;;;14.40;100.00;101511.22;1011777;29;19923;-72
2022/08/22 02:34:22;;;;;;;;;;;;;;;14.42;100.00;101517.16;1016579;29;19930;-72
2022/08/22 02:35:00;;;;;;;;;;;;;;;14.45;100.00;101516.75;1020333;29;19957;-72
2022/08/22 02:35:36;;;;;;;;;;;;;;;14.42;100.00;101506.44;1015725;29;19923;-72
2022/08/22 02:36:18;;;;;;;;;;;;;;;14.44;100.00;101506.25;1011577;29;19935;-72
2022/08/22 02:36:52;;;;;;;;;;;;;;;14.46;100.00;101517.56;1012075;29;20018;-72
2022/08/22 02:37:31;;;;;;;;;;;;;;;14.39;100.00;101511.44;1019085;29;20295;-72
2022/08/22 02:38:17;;;;;;;;;;;;;;;14.34;100.00;101505.94;1016759;29;19924;-72
2022/08/22 02:38:58;;;;;;;;;;;;;;;14.33;100.00;101507.00;1019545;29;19923;-72
2022/08/22 02:39:29;;;;;;;;;;;;;;;14.37;100.00;101508.19;1019769;29;19931;-72
2022/08/22 02:40:21;;;;;;;;;;;;;;;14.38;100.00;101509.81;1023503;29;19922;-72
2022/08/22 02:41:11;;;;;;;;;;;;;;;14.36;100.00;101512.72;1023981;29;19941;-77
2022/08/22 02:41:48;;;;;;;;;;;;;;;14.37;100.00;101505.50;1023958;29;19922;-72
2022/08/22 02:42:20;;;;;;;;;;;;;;;14.39;100.00;101512.25;1023734;29;19922;-72
2022/08/22 02:42:59;;;;;;;;;;;;;;;14.43;100.00;101508.13;1024154;29;19927;-72
2022/08/22 02:43:49;;;;;;;;;;;;;;;14.43;100.00;101507.31;1023910;29;19927;-72
2022/08/22 02:44:24;;;;;;;;;;;;;;;14.42;100.00;101511.81;1017349;29;19923;-72
2022/08/22 02:45:05;;;;;;;;;;;;;;;14.42;100.00;101506.44;1019638;29;19922;-72
2022/08/22 02:45:45;;;;;;;;;;;;;;;14.45;100.00;101510.56;1017714;29;20342;-72
2022/08/22 02:46:32;;;;;;;;;;;;;;;14.49;100.00;101509.88;1011690;29;19923;-72
2022/08/22 02:47:33;;;;;;;;;;;;;;;14.53;100.00;101508.44;1014927;29;19987;-72
2022/08/22 02:48:16;;;;;;;;;;;;;;;14.47;100.00;101503.94;1005754;29;19932;-72
2022/08/22 02:49:00;;;;;;;;;;;;;;;14.40;100.00;101505.84;1005574;29;20385;-71
2022/08/22 02:49:35;;;;;;;;;;;;;;;14.48;100.00;101508.25;1003819;29;19928;-72
2022/08/22 02:50:17;;;;;;;;;;;;;;;14.56;100.00;101511.69;1014892;29;19923;-72
2022/08/22 02:50:53;;;;;;;;;;;;;;;14.41;100.00;101509.34;1019654;29;19922;-72
2022/08/22 02:51:25;;;;;;;;;;;;;;;14.38;100.00;101507.94;1018479;29;19929;-77
2022/08/22 02:52:01;;;;;;;;;;;;;;;14.45;100.00;101500.66;1017684;29;20314;-77
2022/08/22 02:52:37;;;;;;;;;;;;;;;14.52;100.00;101503.28;1016031;29;20383;-77
2022/08/22 02:53:13;;;;;;;;;;;;;;;14.59;100.00;101505.88;1017746;29;19923;-77
2022/08/22 02:54:04;;;;;;;;;;;;;;;14.64;100.00;101508.69;1015870;29;19923;-76
2022/08/22 02:54:44;;;;;;;;;;;;;;;14.71;100.00;101514.78;1015653;29;19924;-77
2022/08/22 02:55:34;;;;;;;;;;;;;;;14.65;100.00;101504.97;1015396;29;19923;-76
2022/08/22 02:56:24;;;;;;;;;;;;;;;14.69;100.00;101522.22;1019738;29;19923;-77
2022/08/22 02:57:01;;;;;;;;;;;;;;;14.67;100.00;101509.06;1020160;29;19929;-77
2022/08/22 02:57:37;;;;;;;;;;;;;;;14.64;100.00;101508.69;1019667;29;19952;-76
2022/08/22 02:58:13;;;;;;;;;;;;;;;14.69;100.00;101508.81;1016252;29;20013;-77
2022/08/22 02:58:55;;;;;;;;;;;;;;;14.75;100.00;101507.91;1015999;29;20025;-77
2022/08/22 02:59:59;;;;;;;;;;;;;;;14.79;100.00;101509.94;1018753;29;21593;-77
2022/08/22 03:00:51;;;;;;;;;;;;;;;14.83;100.00;101503.06;1008074;29;20304;-77
2022/08/22 03:01:25;;;;;;;;;;;;;;;14.79;100.00;101509.94;1018684;29;20014;-76
2022/08/22 03:01:56;;;;;;;;;;;;;;;14.87;100.00;101507.97;1015837;29;19930;-77
2022/08/22 03:02:28;;;;;;;;;;;;;;;14.92;100.00;101511.59;1011861;29;19930;-77
2022/08/22 03:03:20;;;;;;;;;;;;;;;14.91;100.00;101509.16;1012466;29;19931;-77
2022/08/22 03:03:51;;;;;;;;;;;;;;;14.87;100.00;101507.97;1016726;29;19923;-77
2022/08/22 03:04:29;;;;;;;;;;;;;;;14.87;100.00;101506.09;1015117;29;20461;-77
2022/08/22 03:05:21;;;;;;;;;;;;;;;14.91;100.00;101515.34;1017776;29;19923;-77
2022/08/22 03:05:58;;;;;;;;;;;;;;;14.94;100.00;101509.50;1019574;29;19930;-77
2022/08/22 03:06:34;;;;;;;;;;;;;;;14.93;100.00;101507.88;1023969;29;19922;-77
2022/08/22 03:07:06;;;;;;;;;;;;;;;14.89;100.00;101501.31;1023505;29;20339;-77
2022/08/22 03:07:39;;;;;;;;;;;;;;;14.92;100.00;101505.41;1023652;29;19923;-77
2022/08/22 03:08:13;;;;;;;;;;;;;;;14.95;100.00;101511.13;1023576;29;19922;-77
2022/08/22 03:09:02;;;;;;;;;;;;;;;14.99;100.00;101501.59;1019623;29;19923;-77
2022/08/22 03:09:40;;;;;;;;;;;;;;;15.01;100.00;101499.50;1015154;29;19930;-77
2022/08/22 03:10:14;;;;;;;;;;;;;;;14.86;100.00;101504.47;1015726;29;19923;-77
2022/08/22 03:10:55;;;;;;;;;;;;;;;14.90;100.00;101504.81;1019421;29;19934;-77
2022/08/22 03:11:28;;;;;;;;;;;;;;;14.96;100.00;101499.38;1021878;29;19922;-77
2022/08/22 03:12:04;;;;;;;;;;;;;;;14.92;100.00;101506.22;1019663;29;19922;-77
2022/08/22 03:12:51;;;;;;;;;;;;;;;14.89;100.00;101495.97;1016076;29;19971;-77
2022/08/22 03:13:40;;;;;;;;;;;;;;;14.79;100.00;101501.88;1015710;29;20296;-77
2022/08/22 03:14:37;;;;;;;;;;;;;;;14.85;100.00;101494.78;1020261;29;19937;-76
2022/08/22 03:15:09;;;;;;;;;;;;;;;14.79;100.00;101498.34;1013586;29;19968;-77
2022/08/22 03:15:44;;;;;;;;;;;;;;;14.83;100.00;101496.88;1014184;29;19935;-77
2022/08/22 03:16:35;;;;;;;;;;;;;;;14.89;100.00;101497.81;1024115;29;20283;-77
2022/08/22 03:17:08;;;;;;;;;;;;;;;14.93;100.00;101497.13;1023722;29;19923;-77
2022/08/22 03:18:00;;;;;;;;;;;;;;;14.91;100.00;101493.88;1023910;29;19923;-77
2022/08/22 03:18:47;;;;;;;;;;;;;;;14.85;100.00;101497.47;1023633;29;19922;-77
2022/08/22 03:19:22;;;;;;;;;;;;;;;14.82;100.00;101493.38;1019333;29;19923;-76
2022/08/22 03:20:06;;;;;;;;;;;;;;;14.87;100.00;101491.88;1019597;29;20307;-77
2022/08/22 03:20:46;;;;;;;;;;;;;;;14.93;100.00;101493.63;1017093;29;19923;-76
2022/08/22 03:21:36;;;;;;;;;;;;;;;14.97;100.00;101495.63;1022465;29;19923;-77
2022/08/22 03:22:28;;;;;;;;;;;;;;;15.00;100.00;101497.03;1020488;29;19923;-76
2022/08/22 03:23:02;;;;;;;;;;;;;;;14.95;100.00;101491.53;1020656;29;19930;-77
2022/08/22 03:23:39;;;;;;;;;;;;;;;14.99;100.00;101490.03;1021906;29;19923;-77
2022/08/22 03:24:29;;;;;;;;;;;;;;;15.03;100.00;101494.69;1024600;28;19929;-77
2022/08/22 03:25:22;;;;;;;;;;;;;;;15.09;100.00;101490.31;1024955;29;19923;-77
2022/08/22 03:25:56;;;;;;;;;;;;;;;15.00;100.00;101489.81;1024565;29;19922;-76
2022/08/22 03:26:54;;;;;;;;;;;;;;;14.95;100.00;101489.69;1024722;29;19930;-77